Terminal Aerodrome Forecast
Issued by NWS Louisville, KY

Home | Current Version | Previous Version | Text Only | Print | Product List | Glossary On
Versions: 1 2 3 4 5 6 7 8 9 10 11 12 13 14 15 16 17 18 19
000
FTUS43 KLMK 231700
TAFSDF
TAF
KSDF 231723Z 2318/2424 28005KT P6SM VCTS BKN030CB
     FM240100 VRB03KT P6SM SCT040 BKN100
     FM241400 VRB05KT P6SM BKN040=

USA.gov is the U.S. government's official web portal to all federal, state and local government web resources and services.